createdAt,value
2019-01-24T00:02:00.367Z,82.34
2019-01-24T00:04:31.719Z,82.42
2019-01-24T00:07:02.192Z,82.39
2019-01-24T00:09:32.762Z,82.52
2019-01-24T00:12:03.208Z,82.50
2019-01-24T00:14:34.054Z,82.52
2019-01-24T00:17:04.528Z,82.63
2019-01-24T00:19:34.794Z,82.77
2019-01-24T00:22:05.637Z,82.76
2019-01-24T00:24:35.984Z,82.89
2019-01-24T00:27:06.313Z,82.81
2019-01-24T00:29:36.608Z,82.83
2019-01-24T00:32:07.022Z,83.15
2019-01-24T00:34:37.461Z,83.36
2019-01-24T00:37:07.760Z,83.33
2019-01-24T00:39:38.108Z,83.42
2019-01-24T00:42:08.397Z,83.32
2019-01-24T00:44:38.698Z,83.29
2019-01-24T00:47:08.825Z,83.30
2019-01-24T00:49:38.998Z,83.51
2019-01-24T00:52:09.363Z,83.71
2019-01-24T00:54:39.631Z,83.68
2019-01-24T00:57:09.735Z,83.56
2019-01-24T00:59:39.908Z,83.72
2019-01-24T01:02:10.032Z,83.54
2019-01-24T01:04:40.214Z,83.99
2019-01-24T01:07:10.339Z,83.81
2019-01-24T01:09:40.626Z,83.94
2019-01-24T01:12:10.788Z,84.21
2019-01-24T01:14:40.965Z,84.19
2019-01-24T01:17:11.198Z,84.21
2019-01-24T01:19:41.349Z,84.07
2019-01-24T01:22:11.694Z,83.97
2019-01-24T01:24:41.840Z,83.91
2019-01-24T01:27:12.121Z,84.00
2019-01-24T01:29:42.274Z,84.07
2019-01-24T01:32:13.275Z,83.95
2019-01-24T01:34:43.605Z,83.72
2019-01-24T01:37:13.714Z,83.35
2019-01-24T01:39:43.971Z,83.09
2019-01-24T01:42:14.151Z,83.01
2019-01-24T01:44:44.451Z,82.66
2019-01-24T01:47:14.670Z,82.54
2019-01-24T01:49:44.801Z,82.63
2019-01-24T01:52:15.044Z,82.66
2019-01-24T01:54:45.443Z,82.76
2019-01-24T01:57:15.891Z,82.88
2019-01-24T01:59:46.313Z,82.74
2019-01-24T02:02:16.616Z,82.74
2019-01-24T02:04:46.743Z,83.12
2019-01-24T02:07:17.089Z,82.89
2019-01-24T02:09:47.845Z,82.66
2019-01-24T02:12:18.353Z,82.57
2019-01-24T02:14:48.559Z,82.36
2019-01-24T02:17:18.743Z,82.47
2019-01-24T02:19:49.092Z,82.49
2019-01-24T02:22:19.251Z,82.50
2019-01-24T02:24:49.503Z,82.91
2019-01-24T02:27:19.670Z,82.82
2019-01-24T02:29:49.820Z,82.61
2019-01-24T02:32:20.093Z,82.73
2019-01-24T02:34:50.365Z,82.99
2019-01-24T02:37:20.502Z,82.86
2019-01-24T02:39:50.723Z,83.28
2019-01-24T02:42:20.919Z,83.33
2019-01-24T02:44:51.073Z,83.31
2019-01-24T02:47:21.231Z,83.24
2019-01-24T02:49:51.524Z,83.27
2019-01-24T02:52:22.879Z,83.37
2019-01-24T02:54:53.089Z,83.25
2019-01-24T02:57:23.221Z,83.20
2019-01-24T02:59:53.843Z,83.07
2019-01-24T03:02:24.160Z,83.13
2019-01-24T03:04:57.030Z,83.09
2019-01-24T03:07:26.537Z,83.07
2019-01-24T03:09:56.764Z,82.63
2019-01-24T03:12:26.993Z,82.63
2019-01-24T03:14:57.312Z,82.55
2019-01-24T03:17:27.439Z,82.62
2019-01-24T03:19:57.602Z,82.69
2019-01-24T03:22:27.998Z,82.94
2019-01-24T03:24:58.156Z,83.24
2019-01-24T03:27:28.378Z,83.11
2019-01-24T03:29:58.562Z,83.10
2019-01-24T03:32:28.915Z,83.18
2019-01-24T03:35:04.079Z,83.23
2019-01-24T03:37:31.199Z,83.12
2019-01-24T03:40:01.427Z,83.02
2019-01-24T03:42:31.685Z,82.97
2019-01-24T03:45:02.098Z,82.98
2019-01-24T03:47:32.628Z,82.80
2019-01-24T03:50:03.168Z,82.95
2019-01-24T03:52:33.789Z,82.57
2019-01-24T03:55:05.248Z,82.69
2019-01-24T03:57:35.407Z,82.79
2019-01-24T04:00:08.478Z,82.77
2019-01-24T04:02:38.765Z,82.67
2019-01-24T04:05:11.998Z,82.54
2019-01-24T04:07:42.280Z,82.56
2019-01-24T04:10:15.003Z,82.76
2019-01-24T04:12:45.432Z,82.86
2019-01-24T04:15:18.215Z,82.63
2019-01-24T04:17:48.710Z,82.68
2019-01-24T04:20:20.221Z,82.64
2019-01-24T04:22:50.501Z,82.67
2019-01-24T04:25:20.833Z,82.83
2019-01-24T04:27:51.432Z,82.75
2019-01-24T04:30:24.265Z,82.93
2019-01-24T04:32:54.669Z,82.93
2019-01-24T04:35:24.986Z,82.80
2019-01-24T04:37:55.309Z,82.80
2019-01-24T04:40:25.640Z,82.88
2019-01-24T04:42:55.788Z,82.53
2019-01-24T04:45:26.078Z,82.76
2019-01-24T04:47:56.210Z,82.81
2019-01-24T04:50:26.758Z,82.78
2019-01-24T04:52:57.215Z,82.68
2019-01-24T04:55:27.534Z,82.66
2019-01-24T04:57:57.741Z,83.02
2019-01-24T05:00:30.153Z,82.94
2019-01-24T05:03:00.378Z,82.99
2019-01-24T05:05:30.650Z,83.28
2019-01-24T05:08:01.189Z,83.26
2019-01-24T05:10:31.889Z,83.19
2019-01-24T05:13:02.054Z,83.38
2019-01-24T05:15:32.263Z,83.48
2019-01-24T05:18:02.380Z,83.49
2019-01-24T05:20:32.514Z,83.27
2019-01-24T05:23:02.816Z,83.14
2019-01-24T05:25:32.994Z,83.29
2019-01-24T05:28:03.257Z,83.36
2019-01-24T05:30:33.585Z,83.16
2019-01-24T05:33:03.785Z,82.88
2019-01-24T05:35:35.071Z,82.99
2019-01-24T05:38:06.038Z,83.28
2019-01-24T05:40:36.694Z,83.04
2019-01-24T05:43:07.121Z,83.18
2019-01-24T05:45:37.310Z,83.02
2019-01-24T05:48:07.632Z,83.06
2019-01-24T05:50:38.000Z,83.36
2019-01-24T05:53:08.236Z,83.45
2019-01-24T05:55:38.447Z,83.46
2019-01-24T05:58:08.582Z,83.54
2019-01-24T06:00:46.409Z,83.16
2019-01-24T06:03:16.788Z,83.11
2019-01-24T06:05:46.872Z,83.34
2019-01-24T06:08:17.204Z,83.22
2019-01-24T06:10:47.374Z,82.92
2019-01-24T06:13:17.602Z,82.45
2019-01-24T06:15:47.732Z,82.77
2019-01-24T06:18:18.924Z,82.99
2019-01-24T06:20:49.144Z,82.93
2019-01-24T06:23:19.334Z,82.83
2019-01-24T06:25:49.583Z,82.64
2019-01-24T06:28:19.781Z,82.56
2019-01-24T06:30:49.989Z,82.77
2019-01-24T06:33:20.128Z,82.25
2019-01-24T06:35:50.395Z,82.24
2019-01-24T06:38:20.600Z,82.38
2019-01-24T06:40:50.877Z,82.33
2019-01-24T06:43:21.564Z,82.74
2019-01-24T06:45:51.875Z,82.41
2019-01-24T06:48:22.185Z,82.24
2019-01-24T06:50:52.409Z,82.25
2019-01-24T06:53:22.764Z,82.11
2019-01-24T06:55:53.090Z,81.94
2019-01-24T06:58:23.629Z,82.08
2019-01-24T07:00:53.986Z,81.61
2019-01-24T07:03:24.105Z,81.83
2019-01-24T07:05:55.458Z,81.83
2019-01-24T07:08:26.084Z,81.92
2019-01-24T07:10:56.779Z,81.62
2019-01-24T07:13:27.194Z,81.78
2019-01-24T07:24:09.743Z,81.57
2019-01-24T07:26:40.680Z,81.65
2019-01-24T07:29:11.058Z,81.73
2019-01-24T07:31:41.468Z,81.65
2019-01-24T07:34:11.783Z,81.35
2019-01-24T07:36:42.459Z,81.32
2019-01-24T07:39:12.989Z,81.13
2019-01-24T07:41:43.364Z,81.20
2019-01-24T07:44:14.211Z,80.53
2019-01-24T07:46:45.668Z,80.12
2019-01-24T07:49:16.440Z,80.27
2019-01-24T07:51:46.912Z,80.16
2019-01-24T07:54:17.166Z,79.96
2019-01-24T07:56:47.447Z,79.56
2019-01-24T07:59:18.036Z,79.81
2019-01-24T08:01:48.742Z,79.83
2019-01-24T08:04:19.389Z,79.30
2019-01-24T08:06:50.156Z,79.05
2019-01-24T08:09:20.509Z,78.84
2019-01-24T08:11:51.071Z,78.62
2019-01-24T08:14:21.550Z,78.61
2019-01-24T08:16:52.335Z,78.71
2019-01-24T08:19:22.780Z,78.57
2019-01-24T08:21:53.280Z,78.50
2019-01-24T08:24:23.810Z,78.40
2019-01-24T08:26:54.324Z,78.27
2019-01-24T08:29:25.406Z,78.17
2019-01-24T08:31:55.774Z,78.30
2019-01-24T08:34:26.208Z,78.42
2019-01-24T08:36:56.515Z,77.85
2019-01-24T08:39:27.037Z,77.05
2019-01-24T08:41:57.361Z,77.54
2019-01-24T08:44:27.759Z,77.80
2019-01-24T08:46:58.062Z,77.41
2019-01-24T08:49:29.175Z,77.63
2019-01-24T08:51:59.401Z,77.57
2019-01-24T08:54:29.666Z,77.47
2019-01-24T08:56:59.928Z,78.09
2019-01-24T08:59:30.138Z,77.60
2019-01-24T09:02:00.396Z,77.34
2019-01-24T09:04:31.107Z,76.14
2019-01-24T09:07:01.788Z,75.50
2019-01-24T09:09:32.317Z,74.55
2019-01-24T09:12:02.697Z,73.68
2019-01-24T09:14:33.000Z,71.84
2019-01-24T09:17:03.270Z,71.10
2019-01-24T09:19:33.411Z,69.46
2019-01-24T09:22:03.611Z,69.21
2019-01-24T09:24:34.022Z,68.91
2019-01-24T09:27:04.228Z,69.34
2019-01-24T09:29:34.401Z,69.42
2019-01-24T09:39:25.512Z,69.58
2019-01-24T09:41:55.683Z,69.62
2019-01-24T09:44:25.925Z,69.25
2019-01-24T09:46:56.611Z,68.33
2019-01-24T09:49:26.941Z,68.67
2019-01-24T09:51:57.283Z,67.63
2019-01-24T09:54:27.422Z,67.44
2019-01-24T09:56:57.573Z,67.17
2019-01-24T09:59:27.910Z,67.27
2019-01-24T10:01:58.214Z,66.70
2019-01-24T10:04:28.421Z,66.77
2019-01-24T10:06:58.534Z,67.14
2019-01-24T10:09:28.811Z,67.41
2019-01-24T10:11:58.978Z,67.00
2019-01-24T10:14:29.180Z,66.47
2019-01-24T10:16:59.367Z,66.16
2019-01-24T10:19:29.630Z,66.64
2019-01-24T10:21:59.861Z,66.95
2019-01-24T10:24:29.991Z,66.72
2019-01-24T10:27:00.216Z,66.36
2019-01-24T10:29:30.772Z,65.94
2019-01-24T10:32:01.198Z,67.22
2019-01-24T10:34:31.659Z,66.74
2019-01-24T10:37:01.822Z,65.37
2019-01-24T10:39:32.076Z,66.11
2019-01-24T10:42:02.491Z,66.86
2019-01-24T10:44:33.051Z,65.60
2019-01-24T10:47:03.471Z,65.43
2019-01-24T10:49:35.134Z,65.45
2019-01-24T10:52:06.029Z,65.02
2019-01-24T10:54:36.465Z,65.74
2019-01-24T10:57:06.996Z,65.93
2019-01-24T10:59:37.541Z,67.20
2019-01-24T11:02:08.487Z,67.95
2019-01-24T11:04:41.487Z,68.19
2019-01-24T11:07:11.961Z,68.67
2019-01-24T11:09:42.368Z,68.62
2019-01-24T11:12:12.659Z,68.47
2019-01-24T11:14:43.323Z,68.60
2019-01-24T11:17:13.707Z,68.59
2019-01-24T11:19:44.538Z,68.10
2019-01-24T11:22:15.014Z,67.88
2019-01-24T11:24:45.907Z,68.42
2019-01-24T11:27:16.595Z,68.79
2019-01-24T11:29:46.878Z,68.92
2019-01-24T11:32:17.267Z,67.44
2019-01-24T11:34:47.940Z,67.62
2019-01-24T11:37:18.386Z,67.16
2019-01-24T11:39:48.755Z,67.42
2019-01-24T11:42:19.595Z,67.88
2019-01-24T11:44:50.055Z,67.18
2019-01-24T11:47:20.592Z,67.07
2019-01-24T11:49:51.026Z,68.10
2019-01-24T11:52:21.443Z,67.44
2019-01-24T11:54:51.706Z,67.23
2019-01-24T11:57:22.379Z,68.30
2019-01-24T11:59:52.898Z,67.91
2019-01-24T12:02:23.457Z,67.43
2019-01-24T12:04:54.111Z,67.41
2019-01-24T12:07:24.357Z,67.78
2019-01-24T12:09:54.624Z,67.64
2019-01-24T12:12:25.003Z,68.86
2019-01-24T12:14:55.229Z,68.95
2019-01-24T12:17:25.422Z,69.53
2019-01-24T12:19:59.099Z,70.47
2019-01-24T12:22:29.492Z,70.19
2019-01-24T12:25:00.167Z,69.57
2019-01-24T12:27:30.778Z,70.48
2019-01-24T12:30:03.422Z,71.07
2019-01-24T12:32:34.447Z,70.25
2019-01-24T12:35:06.185Z,70.02
2019-01-24T12:37:37.900Z,69.75
2019-01-24T12:40:08.723Z,69.53
2019-01-24T12:42:39.250Z,68.85
2019-01-24T12:45:15.246Z,69.80
2019-01-24T12:47:45.466Z,70.10
2019-01-24T12:50:16.716Z,70.13
2019-01-24T12:52:47.511Z,70.43
2019-01-24T12:55:18.430Z,70.25
2019-01-24T12:57:50.659Z,71.59
2019-01-24T13:00:32.637Z,71.93
2019-01-24T13:03:03.118Z,71.89
2019-01-24T13:05:33.486Z,71.38
2019-01-24T13:08:04.192Z,71.00
2019-01-24T13:10:34.850Z,71.58
2019-01-24T13:13:06.676Z,72.49
2019-01-24T13:15:37.626Z,72.40
2019-01-24T13:18:08.222Z,72.27
2019-01-24T13:20:38.524Z,71.36
2019-01-24T13:23:08.820Z,70.92
2019-01-24T13:25:39.638Z,71.41
2019-01-24T13:28:10.095Z,70.99
2019-01-24T13:30:40.899Z,72.51
2019-01-24T13:33:11.222Z,75.02
2019-01-24T13:35:41.720Z,72.62
2019-01-24T13:38:12.224Z,71.92
2019-01-24T13:40:42.812Z,71.54
2019-01-24T13:43:13.292Z,71.21
2019-01-24T13:45:43.871Z,71.52
2019-01-24T13:48:14.285Z,72.26
2019-01-24T13:50:46.463Z,72.29
2019-01-24T13:53:16.832Z,71.77
2019-01-24T13:55:47.176Z,71.53
2019-01-24T13:58:18.212Z,71.62
2019-01-24T14:00:49.571Z,71.73
2019-01-24T14:03:27.040Z,71.19
2019-01-24T14:05:57.662Z,71.64
2019-01-24T14:08:28.485Z,72.16
2019-01-24T14:10:59.126Z,72.37
2019-01-24T14:13:29.534Z,71.76
2019-01-24T14:16:00.306Z,71.84
2019-01-24T14:18:30.710Z,72.74
2019-01-24T14:21:01.610Z,73.04
2019-01-24T14:23:32.049Z,73.73
2019-01-24T14:26:03.058Z,73.86
2019-01-24T14:28:33.487Z,73.70
2019-01-24T14:31:04.171Z,72.62
2019-01-24T14:33:34.592Z,73.19
2019-01-24T14:36:06.388Z,73.60
2019-01-24T14:38:37.077Z,73.14
2019-01-24T14:41:07.512Z,74.37
2019-01-24T14:43:38.209Z,74.38
2019-01-24T14:46:08.786Z,74.50
2019-01-24T14:48:42.431Z,74.51
2019-01-24T14:51:12.888Z,74.43
2019-01-24T14:53:43.623Z,75.18
2019-01-24T14:56:14.193Z,75.38
2019-01-24T14:58:44.712Z,76.00
2019-01-24T15:01:21.403Z,76.03
2019-01-24T15:03:51.907Z,75.91
2019-01-24T15:06:22.481Z,76.23
2019-01-24T15:08:52.812Z,76.54
2019-01-24T15:11:23.198Z,77.94
2019-01-24T15:13:53.497Z,77.90
2019-01-24T15:16:23.772Z,78.06
2019-01-24T15:18:54.350Z,77.80
2019-01-24T15:21:24.869Z,77.91
2019-01-24T15:23:55.201Z,79.00
2019-01-24T15:26:25.712Z,78.99
2019-01-24T15:28:56.099Z,79.45
2019-01-24T15:31:26.624Z,79.47
2019-01-24T15:33:58.386Z,79.41
2019-01-24T15:36:29.026Z,79.41
2019-01-24T15:38:59.242Z,79.91
2019-01-24T15:41:29.614Z,80.29
2019-01-24T15:43:59.922Z,81.36
2019-01-24T15:46:30.557Z,82.59
2019-01-24T15:49:01.106Z,84.03
2019-01-24T15:51:31.415Z,83.94
2019-01-24T15:54:01.989Z,83.36
2019-01-24T15:56:32.518Z,82.70
2019-01-24T15:59:02.810Z,82.46
2019-01-24T16:01:33.106Z,82.65
2019-01-24T16:04:03.462Z,82.26
2019-01-24T16:06:34.110Z,82.21
2019-01-24T16:09:06.981Z,82.12
2019-01-24T16:11:37.417Z,81.94
2019-01-24T16:14:07.894Z,82.22
2019-01-24T16:16:38.610Z,82.47
2019-01-24T16:19:09.105Z,82.29
2019-01-24T16:21:39.476Z,82.17
2019-01-24T16:24:09.782Z,82.05
2019-01-24T16:26:40.317Z,81.93
2019-01-24T16:29:10.738Z,82.01
2019-01-24T16:31:41.327Z,82.19
2019-01-24T16:34:11.857Z,82.09
2019-01-24T16:36:42.418Z,82.44
2019-01-24T16:39:12.836Z,82.56
2019-01-24T16:41:43.144Z,82.77
2019-01-24T16:44:13.463Z,82.95
2019-01-24T16:46:43.781Z,82.81
2019-01-24T16:49:14.298Z,82.67
2019-01-24T16:51:44.890Z,82.61
2019-01-24T16:54:15.140Z,82.99
2019-01-24T16:56:45.407Z,83.08
2019-01-24T16:59:16.134Z,83.03
2019-01-24T17:01:46.676Z,83.04
2019-01-24T17:04:17.232Z,82.95
2019-01-24T17:06:47.762Z,82.72
2019-01-24T17:09:18.168Z,82.75
2019-01-24T17:11:48.807Z,82.82
2019-01-24T17:14:22.342Z,82.80
2019-01-24T17:16:53.247Z,82.92
2019-01-24T17:19:23.698Z,83.01
2019-01-24T17:21:54.080Z,82.95
2019-01-24T17:24:24.343Z,82.95
2019-01-24T17:26:54.842Z,82.89
2019-01-24T17:29:25.190Z,82.81
2019-01-24T17:31:55.525Z,82.69
2019-01-24T17:34:26.665Z,82.64
2019-01-24T17:36:57.007Z,82.61
2019-01-24T17:39:27.247Z,82.64
2019-01-24T17:41:57.541Z,82.79
2019-01-24T17:44:28.311Z,82.70
2019-01-24T17:46:58.746Z,82.60
2019-01-24T17:49:29.156Z,82.61
2019-01-24T17:51:59.374Z,82.65
2019-01-24T17:54:30.016Z,82.60
2019-01-24T17:57:00.510Z,83.03
2019-01-24T17:59:31.256Z,83.29
2019-01-24T18:02:01.795Z,83.20
2019-01-24T18:04:32.238Z,82.99
2019-01-24T18:07:02.860Z,83.13
2019-01-24T18:09:33.363Z,83.29
2019-01-24T18:12:03.717Z,83.43
2019-01-24T18:14:34.001Z,83.62
2019-01-24T18:17:04.674Z,83.56
2019-01-24T18:19:35.218Z,83.73
2019-01-24T18:22:06.163Z,83.58
2019-01-24T18:24:37.454Z,83.48
2019-01-24T18:27:07.974Z,83.52
2019-01-24T18:29:38.315Z,83.51
2019-01-24T18:32:14.197Z,84.03
2019-01-24T18:34:44.499Z,84.03
2019-01-24T18:37:15.114Z,84.24
2019-01-24T18:39:45.630Z,84.35
2019-01-24T18:42:16.025Z,84.45
2019-01-24T18:44:49.120Z,84.52
2019-01-24T18:47:21.781Z,84.19
2019-01-24T18:49:52.013Z,83.96
2019-01-24T18:52:22.518Z,83.87
2019-01-24T18:54:52.878Z,83.79
2019-01-24T18:57:24.352Z,83.92
2019-01-24T18:59:54.838Z,84.02
2019-01-24T19:02:28.004Z,84.22
2019-01-24T19:04:58.469Z,84.42
2019-01-24T19:07:35.151Z,84.33
2019-01-24T19:10:07.339Z,84.31
2019-01-24T19:12:37.659Z,84.50
2019-01-24T19:15:11.666Z,84.44
2019-01-24T19:17:42.503Z,84.30
2019-01-24T19:20:13.133Z,84.29
2019-01-24T19:22:43.488Z,84.54
2019-01-24T19:25:15.100Z,84.76
2019-01-24T19:27:45.951Z,84.66
2019-01-24T19:30:26.448Z,84.82
2019-01-24T19:32:56.950Z,85.23
2019-01-24T19:35:27.617Z,85.27
2019-01-24T19:37:57.983Z,85.15
2019-01-24T19:40:29.078Z,85.30
2019-01-24T19:42:59.539Z,85.32
2019-01-24T19:45:30.531Z,85.26
2019-01-24T19:48:00.838Z,85.13
2019-01-24T19:50:31.862Z,85.29
2019-01-24T19:53:02.295Z,85.86
2019-01-24T19:55:32.730Z,85.75
2019-01-24T19:58:04.259Z,85.58
2019-01-24T20:00:34.883Z,85.64
2019-01-24T20:03:06.534Z,85.64
2019-01-24T20:05:36.908Z,85.54
2019-01-24T20:08:07.241Z,85.68
2019-01-24T20:10:37.618Z,85.66
2019-01-24T20:13:07.893Z,85.78
2019-01-24T20:15:39.132Z,86.04
2019-01-24T20:18:10.010Z,86.57
2019-01-24T20:20:40.422Z,85.86
2019-01-24T20:23:10.667Z,85.63
2019-01-24T20:25:41.135Z,85.64
2019-01-24T20:28:11.972Z,85.76
2019-01-24T20:30:42.474Z,85.82
2019-01-24T20:33:13.052Z,85.54
2019-01-24T20:35:47.116Z,85.40
2019-01-24T20:38:17.572Z,85.10
2019-01-24T20:40:50.978Z,85.16
2019-01-24T20:43:21.882Z,85.05
2019-01-24T20:45:52.160Z,84.93
2019-01-24T20:48:22.556Z,84.92
2019-01-24T20:50:53.227Z,85.16
2019-01-24T20:53:23.527Z,85.34
2019-01-24T20:55:53.927Z,85.27
2019-01-24T20:58:24.443Z,85.23
2019-01-24T21:00:55.129Z,85.31
2019-01-24T21:03:25.684Z,85.26
2019-01-24T21:05:56.007Z,85.27
2019-01-24T21:08:27.334Z,85.23
2019-01-24T21:10:57.903Z,85.29
2019-01-24T21:13:28.264Z,85.07
2019-01-24T21:15:58.498Z,85.07
2019-01-24T21:18:28.985Z,85.03
2019-01-24T21:20:59.816Z,85.06
2019-01-24T21:23:30.085Z,85.29
2019-01-24T21:26:00.475Z,85.31
2019-01-24T21:28:31.458Z,85.48
2019-01-24T21:31:01.813Z,85.48
2019-01-24T21:33:32.306Z,85.70
2019-01-24T21:36:02.763Z,85.76
2019-01-24T21:38:33.091Z,85.99
2019-01-24T21:41:03.369Z,86.11
2019-01-24T21:43:33.592Z,86.08
2019-01-24T21:46:04.245Z,86.09
2019-01-24T21:48:35.705Z,86.21
2019-01-24T21:51:11.113Z,86.27
2019-01-24T21:53:37.973Z,86.26
2019-01-24T21:56:08.334Z,86.27
2019-01-24T21:58:38.605Z,86.27
2019-01-24T22:01:08.936Z,86.21
2019-01-24T22:03:39.177Z,85.92
2019-01-24T22:06:09.721Z,85.59
2019-01-24T22:08:40.271Z,85.41
2019-01-24T22:11:10.684Z,85.41
2019-01-24T22:13:40.902Z,85.36
2019-01-24T22:16:11.708Z,85.46
2019-01-24T22:18:42.058Z,85.54
2019-01-24T22:21:12.342Z,85.57
2019-01-24T22:23:42.626Z,85.87
2019-01-24T22:26:12.899Z,85.99
2019-01-24T22:28:43.633Z,85.89
2019-01-24T22:31:13.891Z,86.01
2019-01-24T22:33:44.051Z,85.96
2019-01-24T22:36:14.284Z,85.97
2019-01-24T22:38:44.962Z,85.94
2019-01-24T22:41:15.470Z,86.16
2019-01-24T22:43:45.822Z,86.10
2019-01-24T22:46:16.046Z,86.07
2019-01-24T22:48:46.417Z,85.84
2019-01-24T22:51:16.609Z,85.63
2019-01-24T22:53:47.046Z,85.58
2019-01-24T22:56:17.870Z,85.90
2019-01-24T22:58:48.128Z,86.09
2019-01-24T23:01:42.992Z,85.88
2019-01-24T23:04:18.666Z,85.66
2019-01-24T23:06:48.923Z,85.61
2019-01-24T23:09:20.913Z,85.64
2019-01-24T23:11:51.304Z,85.60
2019-01-24T23:14:21.588Z,85.63
2019-01-24T23:16:51.835Z,85.68
2019-01-24T23:19:22.173Z,85.80
2019-01-24T23:21:52.290Z,86.08
2019-01-24T23:24:22.524Z,86.19
2019-01-24T23:26:53.986Z,85.92
2019-01-24T23:29:24.613Z,85.68
2019-01-24T23:31:54.813Z,85.58
2019-01-24T23:34:25.053Z,85.65
2019-01-24T23:36:55.213Z,85.76
2019-01-24T23:39:25.554Z,86.07
2019-01-24T23:41:55.798Z,86.06
2019-01-24T23:44:25.982Z,85.87
2019-01-24T23:46:56.211Z,85.75
2019-01-24T23:49:26.474Z,85.95
2019-01-24T23:51:56.916Z,86.20
2019-01-24T23:54:27.451Z,86.22
2019-01-24T23:56:57.827Z,86.19
2019-01-24T23:59:30.017Z,86.02
